sensor_id;sensor_type;location;lat;lon;timestamp;temperature;humidity
9305;DHT22;4690;52.422;13.486;2023-07-13T00:04:43;19.10;99.90
9305;DHT22;4690;52.422;13.486;2023-07-13T00:07:08;19.10;99.90
9305;DHT22;4690;52.422;13.486;2023-07-13T00:09:35;19.10;99.90
9305;DHT22;4690;52.422;13.486;2023-07-13T00:12:01;19.10;99.90
9305;DHT22;4690;52.422;13.486;2023-07-13T00:14:28;19.00;99.90
9305;DHT22;4690;52.422;13.486;2023-07-13T00:16:55;18.90;99.90
9305;DHT22;4690;52.422;13.486;2023-07-13T00:19:21;18.90;99.90
9305;DHT22;4690;52.422;13.486;2023-07-13T00:21:47;18.90;99.90
9305;DHT22;4690;52.422;13.486;2023-07-13T00:24:16;18.90;99.90
9305;DHT22;4690;52.422;13.486;2023-07-13T00:26:48;18.90;99.90
9305;DHT22;4690;52.422;13.486;2023-07-13T00:29:14;19.00;99.90
9305;DHT22;4690;52.422;13.486;2023-07-13T00:31:41;19.00;99.90
9305;DHT22;4690;52.422;13.486;2023-07-13T00:34:07;18.90;99.90
9305;DHT22;4690;52.422;13.486;2023-07-13T00:36:33;19.00;99.90
9305;DHT22;4690;52.422;13.486;2023-07-13T00:38:59;19.00;99.90
9305;DHT22;4690;52.422;13.486;2023-07-13T00:41:25;18.90;99.90
9305;DHT22;4690;52.422;13.486;2023-07-13T00:43:51;19.00;99.90
9305;DHT22;4690;52.422;13.486;2023-07-13T00:46:22;19.00;99.90
9305;DHT22;4690;52.422;13.486;2023-07-13T00:48:53;18.90;99.90
9305;DHT22;4690;52.422;13.486;2023-07-13T00:51:27;18.90;99.90
9305;DHT22;4690;52.422;13.486;2023-07-13T00:53:59;18.90;99.90
9305;DHT22;4690;52.422;13.486;2023-07-13T00:56:29;18.80;99.90
9305;DHT22;4690;52.422;13.486;2023-07-13T00:58:56;18.70;99.90
9305;DHT22;4690;52.422;13.486;2023-07-13T01:01:23;18.70;99.90
9305;DHT22;4690;52.422;13.486;2023-07-13T01:03:48;18.60;99.90
9305;DHT22;4690;52.422;13.486;2023-07-13T01:06:16;18.60;99.90
9305;DHT22;4690;52.422;13.486;2023-07-13T01:08:43;18.50;99.90
9305;DHT22;4690;52.422;13.486;2023-07-13T01:11:08;18.40;99.90
9305;DHT22;4690;52.422;13.486;2023-07-13T01:13:34;18.40;99.90
9305;DHT22;4690;52.422;13.486;2023-07-13T01:16:04;18.30;99.90
9305;DHT22;4690;52.422;13.486;2023-07-13T01:18:39;18.40;99.90
9305;DHT22;4690;52.422;13.486;2023-07-13T01:21:05;18.30;99.90
9305;DHT22;4690;52.422;13.486;2023-07-13T01:23:32;18.30;99.90
9305;DHT22;4690;52.422;13.486;2023-07-13T01:25:59;18.20;99.90
9305;DHT22;4690;52.422;13.486;2023-07-13T01:28:26;18.20;99.90
9305;DHT22;4690;52.422;13.486;2023-07-13T01:30:55;18.10;99.90
9305;DHT22;4690;52.422;13.486;2023-07-13T01:33:23;18.10;99.90
9305;DHT22;4690;52.422;13.486;2023-07-13T01:35:50;18.10;99.90
9305;DHT22;4690;52.422;13.486;2023-07-13T01:38:17;18.10;99.90
9305;DHT22;4690;52.422;13.486;2023-07-13T01:40:45;18.10;99.90
9305;DHT22;4690;52.422;13.486;2023-07-13T01:43:11;18.00;99.90
9305;DHT22;4690;52.422;13.486;2023-07-13T01:45:37;18.00;99.90
9305;DHT22;4690;52.422;13.486;2023-07-13T01:48:03;17.90;99.90
9305;DHT22;4690;52.422;13.486;2023-07-13T01:50:32;17.90;99.90
9305;DHT22;4690;52.422;13.486;2023-07-13T01:52:58;17.80;99.90
9305;DHT22;4690;52.422;13.486;2023-07-13T01:55:24;17.80;99.90
9305;DHT22;4690;52.422;13.486;2023-07-13T01:57:50;17.70;99.90
9305;DHT22;4690;52.422;13.486;2023-07-13T02:00:16;17.60;99.90
9305;DHT22;4690;52.422;13.486;2023-07-13T02:02:42;17.70;99.90
9305;DHT22;4690;52.422;13.486;2023-07-13T02:05:08;17.70;99.90
9305;DHT22;4690;52.422;13.486;2023-07-13T02:07:34;17.80;99.90
9305;DHT22;4690;52.422;13.486;2023-07-13T02:10:00;17.70;99.90
9305;DHT22;4690;52.422;13.486;2023-07-13T02:12:26;17.80;99.90
9305;DHT22;4690;52.422;13.486;2023-07-13T02:14:51;17.70;99.90
9305;DHT22;4690;52.422;13.486;2023-07-13T02:17:17;17.70;99.90
9305;DHT22;4690;52.422;13.486;2023-07-13T02:19:43;17.70;99.90
9305;DHT22;4690;52.422;13.486;2023-07-13T02:22:09;17.60;99.90
9305;DHT22;4690;52.422;13.486;2023-07-13T02:24:34;17.60;99.90
9305;DHT22;4690;52.422;13.486;2023-07-13T02:27:00;17.60;99.90
9305;DHT22;4690;52.422;13.486;2023-07-13T02:29:26;17.50;99.90
9305;DHT22;4690;52.422;13.486;2023-07-13T02:31:51;17.50;99.90
9305;DHT22;4690;52.422;13.486;2023-07-13T02:34:17;17.40;99.90
9305;DHT22;4690;52.422;13.486;2023-07-13T02:36:43;17.30;99.90
9305;DHT22;4690;52.422;13.486;2023-07-13T02:39:11;17.30;99.90
9305;DHT22;4690;52.422;13.486;2023-07-13T02:41:38;17.20;99.90
9305;DHT22;4690;52.422;13.486;2023-07-13T02:44:04;17.20;99.90
9305;DHT22;4690;52.422;13.486;2023-07-13T02:46:31;17.20;99.90
9305;DHT22;4690;52.422;13.486;2023-07-13T02:48:58;17.20;99.90
9305;DHT22;4690;52.422;13.486;2023-07-13T02:51:24;17.20;99.90
9305;DHT22;4690;52.422;13.486;2023-07-13T02:53:50;17.20;99.90
9305;DHT22;4690;52.422;13.486;2023-07-13T02:56:16;17.20;99.90
9305;DHT22;4690;52.422;13.486;2023-07-13T02:58:41;17.10;99.90
9305;DHT22;4690;52.422;13.486;2023-07-13T03:01:09;17.10;99.90
9305;DHT22;4690;52.422;13.486;2023-07-13T03:03:36;17.00;99.90
9305;DHT22;4690;52.422;13.486;2023-07-13T03:06:04;17.10;99.90
9305;DHT22;4690;52.422;13.486;2023-07-13T03:08:32;17.00;99.90
9305;DHT22;4690;52.422;13.486;2023-07-13T03:11:07;17.10;99.90
9305;DHT22;4690;52.422;13.486;2023-07-13T03:13:38;17.10;99.90
9305;DHT22;4690;52.422;13.486;2023-07-13T03:16:07;17.10;99.90
9305;DHT22;4690;52.422;13.486;2023-07-13T03:18:35;17.10;99.90
9305;DHT22;4690;52.422;13.486;2023-07-13T03:21:01;17.00;99.90
9305;DHT22;4690;52.422;13.486;2023-07-13T03:23:27;17.10;99.90
9305;DHT22;4690;52.422;13.486;2023-07-13T03:26:11;17.10;99.90
9305;DHT22;4690;52.422;13.486;2023-07-13T03:28:40;17.10;99.90
9305;DHT22;4690;52.422;13.486;2023-07-13T03:31:15;17.20;99.90
9305;DHT22;4690;52.422;13.486;2023-07-13T03:33:43;17.30;99.90
9305;DHT22;4690;52.422;13.486;2023-07-13T03:36:16;17.30;99.90
9305;DHT22;4690;52.422;13.486;2023-07-13T03:38:46;17.30;99.90
9305;DHT22;4690;52.422;13.486;2023-07-13T03:41:14;17.20;99.90
9305;DHT22;4690;52.422;13.486;2023-07-13T03:43:40;17.20;99.90
9305;DHT22;4690;52.422;13.486;2023-07-13T03:46:06;17.10;99.90
9305;DHT22;4690;52.422;13.486;2023-07-13T03:48:32;17.20;99.90
9305;DHT22;4690;52.422;13.486;2023-07-13T03:50:58;17.20;99.90
9305;DHT22;4690;52.422;13.486;2023-07-13T03:53:23;17.20;99.90
9305;DHT22;4690;52.422;13.486;2023-07-13T03:55:49;17.20;99.90
9305;DHT22;4690;52.422;13.486;2023-07-13T03:58:34;17.30;99.90
9305;DHT22;4690;52.422;13.486;2023-07-13T04:01:03;17.20;99.90
9305;DHT22;4690;52.422;13.486;2023-07-13T04:03:31;17.30;99.90
9305;DHT22;4690;52.422;13.486;2023-07-13T04:05:59;17.20;99.90
9305;DHT22;4690;52.422;13.486;2023-07-13T04:08:31;17.20;99.90
9305;DHT22;4690;52.422;13.486;2023-07-13T04:11:00;17.20;99.90
9305;DHT22;4690;52.422;13.486;2023-07-13T04:13:26;17.30;99.90
9305;DHT22;4690;52.422;13.486;2023-07-13T04:15:53;17.50;99.90
9305;DHT22;4690;52.422;13.486;2023-07-13T04:18:19;17.50;99.90
9305;DHT22;4690;52.422;13.486;2023-07-13T04:20:47;17.60;99.90
9305;DHT22;4690;52.422;13.486;2023-07-13T04:23:14;17.50;99.90
9305;DHT22;4690;52.422;13.486;2023-07-13T04:25:48;17.70;99.90
9305;DHT22;4690;52.422;13.486;2023-07-13T04:28:22;17.80;99.90
9305;DHT22;4690;52.422;13.486;2023-07-13T04:30:49;17.90;99.90
9305;DHT22;4690;52.422;13.486;2023-07-13T04:33:16;17.90;99.90
9305;DHT22;4690;52.422;13.486;2023-07-13T04:35:43;17.90;99.90
9305;DHT22;4690;52.422;13.486;2023-07-13T04:38:12;18.00;99.90
9305;DHT22;4690;52.422;13.486;2023-07-13T04:40:37;18.00;99.90
9305;DHT22;4690;52.422;13.486;2023-07-13T04:43:03;18.10;99.90
9305;DHT22;4690;52.422;13.486;2023-07-13T04:45:29;18.10;99.90
9305;DHT22;4690;52.422;13.486;2023-07-13T04:47:56;18.10;99.90
9305;DHT22;4690;52.422;13.486;2023-07-13T04:50:22;18.20;99.90
9305;DHT22;4690;52.422;13.486;2023-07-13T04:52:49;18.30;99.90
9305;DHT22;4690;52.422;13.486;2023-07-13T04:55:16;18.30;99.90
9305;DHT22;4690;52.422;13.486;2023-07-13T04:57:43;18.30;99.90
9305;DHT22;4690;52.422;13.486;2023-07-13T05:00:09;18.40;99.90
9305;DHT22;4690;52.422;13.486;2023-07-13T05:02:38;18.50;99.90
9305;DHT22;4690;52.422;13.486;2023-07-13T05:05:05;18.50;99.90
9305;DHT22;4690;52.422;13.486;2023-07-13T05:07:32;18.60;99.90
9305;DHT22;4690;52.422;13.486;2023-07-13T05:09:59;18.70;99.90
9305;DHT22;4690;52.422;13.486;2023-07-13T05:12:25;18.80;99.90
9305;DHT22;4690;52.422;13.486;2023-07-13T05:14:52;18.90;99.90
9305;DHT22;4690;52.422;13.486;2023-07-13T05:17:18;18.90;99.90
9305;DHT22;4690;52.422;13.486;2023-07-13T05:19:44;19.00;99.90
9305;DHT22;4690;52.422;13.486;2023-07-13T05:22:10;19.00;99.90
9305;DHT22;4690;52.422;13.486;2023-07-13T05:24:35;19.10;99.90
9305;DHT22;4690;52.422;13.486;2023-07-13T05:27:01;19.20;99.90
9305;DHT22;4690;52.422;13.486;2023-07-13T05:29:27;19.30;99.90
9305;DHT22;4690;52.422;13.486;2023-07-13T05:31:53;19.30;99.90
9305;DHT22;4690;52.422;13.486;2023-07-13T05:34:20;19.40;99.90
9305;DHT22;4690;52.422;13.486;2023-07-13T05:36:46;19.40;99.90
9305;DHT22;4690;52.422;13.486;2023-07-13T05:39:11;19.50;99.90
9305;DHT22;4690;52.422;13.486;2023-07-13T05:41:37;19.60;99.90
9305;DHT22;4690;52.422;13.486;2023-07-13T05:44:03;19.70;99.90
9305;DHT22;4690;52.422;13.486;2023-07-13T05:46:29;19.70;99.90
9305;DHT22;4690;52.422;13.486;2023-07-13T05:48:56;19.80;99.90
9305;DHT22;4690;52.422;13.486;2023-07-13T05:51:22;19.90;99.90
9305;DHT22;4690;52.422;13.486;2023-07-13T05:53:47;20.00;99.90
9305;DHT22;4690;52.422;13.486;2023-07-13T05:56:13;20.20;99.90
9305;DHT22;4690;52.422;13.486;2023-07-13T05:58:39;20.40;99.90
9305;DHT22;4690;52.422;13.486;2023-07-13T06:01:09;20.60;99.90
9305;DHT22;4690;52.422;13.486;2023-07-13T06:03:37;20.60;99.90
9305;DHT22;4690;52.422;13.486;2023-07-13T06:06:08;20.60;99.90
9305;DHT22;4690;52.422;13.486;2023-07-13T06:08:35;20.60;99.90
9305;DHT22;4690;52.422;13.486;2023-07-13T06:11:06;20.70;99.90
9305;DHT22;4690;52.422;13.486;2023-07-13T06:13:35;20.90;99.90
9305;DHT22;4690;52.422;13.486;2023-07-13T06:16:01;21.00;99.90
9305;DHT22;4690;52.422;13.486;2023-07-13T06:18:30;21.00;99.90
9305;DHT22;4690;52.422;13.486;2023-07-13T06:20:57;21.00;99.90
9305;DHT22;4690;52.422;13.486;2023-07-13T06:23:23;21.20;99.90
9305;DHT22;4690;52.422;13.486;2023-07-13T06:25:50;21.20;99.90
9305;DHT22;4690;52.422;13.486;2023-07-13T06:28:15;21.40;99.90
9305;DHT22;4690;52.422;13.486;2023-07-13T06:30:41;21.40;99.90
9305;DHT22;4690;52.422;13.486;2023-07-13T06:33:07;21.50;99.90
9305;DHT22;4690;52.422;13.486;2023-07-13T06:35:33;21.50;99.90
9305;DHT22;4690;52.422;13.486;2023-07-13T06:37:59;21.40;99.90
9305;DHT22;4690;52.422;13.486;2023-07-13T06:40:25;21.50;99.90
9305;DHT22;4690;52.422;13.486;2023-07-13T06:42:50;21.50;99.90
9305;DHT22;4690;52.422;13.486;2023-07-13T06:45:16;21.70;99.90
9305;DHT22;4690;52.422;13.486;2023-07-13T06:47:42;21.80;99.90
9305;DHT22;4690;52.422;13.486;2023-07-13T06:50:08;21.90;99.90
9305;DHT22;4690;52.422;13.486;2023-07-13T06:52:34;21.80;99.90
9305;DHT22;4690;52.422;13.486;2023-07-13T06:55:01;21.80;99.90
9305;DHT22;4690;52.422;13.486;2023-07-13T06:57:26;21.80;99.90
9305;DHT22;4690;52.422;13.486;2023-07-13T06:59:53;21.90;99.90
9305;DHT22;4690;52.422;13.486;2023-07-13T07:02:18;22.10;99.90
9305;DHT22;4690;52.422;13.486;2023-07-13T07:04:44;22.10;99.90
9305;DHT22;4690;52.422;13.486;2023-07-13T07:07:10;22.40;99.90
9305;DHT22;4690;52.422;13.486;2023-07-13T07:09:35;22.60;99.90
9305;DHT22;4690;52.422;13.486;2023-07-13T07:12:02;22.70;99.90
9305;DHT22;4690;52.422;13.486;2023-07-13T07:14:29;22.90;99.90
9305;DHT22;4690;52.422;13.486;2023-07-13T07:16:55;22.70;99.90
9305;DHT22;4690;52.422;13.486;2023-07-13T07:19:21;22.60;99.90
9305;DHT22;4690;52.422;13.486;2023-07-13T07:21:47;22.60;99.90
9305;DHT22;4690;52.422;13.486;2023-07-13T07:24:12;22.50;99.90
9305;DHT22;4690;52.422;13.486;2023-07-13T07:26:38;22.50;99.90
9305;DHT22;4690;52.422;13.486;2023-07-13T07:29:04;22.70;99.90
9305;DHT22;4690;52.422;13.486;2023-07-13T07:31:30;22.90;99.90
9305;DHT22;4690;52.422;13.486;2023-07-13T07:33:55;23.10;99.90
9305;DHT22;4690;52.422;13.486;2023-07-13T07:36:21;23.00;99.90
9305;DHT22;4690;52.422;13.486;2023-07-13T07:38:47;22.80;99.90
9305;DHT22;4690;52.422;13.486;2023-07-13T07:41:13;22.80;99.90
9305;DHT22;4690;52.422;13.486;2023-07-13T07:43:39;23.00;99.90
9305;DHT22;4690;52.422;13.486;2023-07-13T07:46:05;23.10;99.90
9305;DHT22;4690;52.422;13.486;2023-07-13T07:48:31;23.00;99.90
9305;DHT22;4690;52.422;13.486;2023-07-13T07:50:57;23.10;99.90
9305;DHT22;4690;52.422;13.486;2023-07-13T07:53:23;23.30;99.90
9305;DHT22;4690;52.422;13.486;2023-07-13T07:55:49;23.30;99.90
9305;DHT22;4690;52.422;13.486;2023-07-13T07:58:15;23.30;99.90
9305;DHT22;4690;52.422;13.486;2023-07-13T08:00:41;23.30;99.90
9305;DHT22;4690;52.422;13.486;2023-07-13T08:03:06;23.70;99.90
9305;DHT22;4690;52.422;13.486;2023-07-13T08:05:35;23.80;99.90
9305;DHT22;4690;52.422;13.486;2023-07-13T08:08:02;24.00;99.90
9305;DHT22;4690;52.422;13.486;2023-07-13T08:10:28;24.40;99.90
9305;DHT22;4690;52.422;13.486;2023-07-13T08:12:54;24.60;99.90
9305;DHT22;4690;52.422;13.486;2023-07-13T08:15:20;24.10;99.90
9305;DHT22;4690;52.422;13.486;2023-07-13T08:17:49;23.80;99.90
9305;DHT22;4690;52.422;13.486;2023-07-13T08:20:15;23.60;99.90
9305;DHT22;4690;52.422;13.486;2023-07-13T08:22:41;23.70;99.90
9305;DHT22;4690;52.422;13.486;2023-07-13T08:25:07;23.50;99.90
9305;DHT22;4690;52.422;13.486;2023-07-13T08:27:33;23.30;99.90
9305;DHT22;4690;52.422;13.486;2023-07-13T08:29:59;23.10;99.90
9305;DHT22;4690;52.422;13.486;2023-07-13T08:32:25;23.10;99.90
9305;DHT22;4690;52.422;13.486;2023-07-13T08:34:51;23.10;99.90
9305;DHT22;4690;52.422;13.486;2023-07-13T08:37:18;23.00;99.90
9305;DHT22;4690;52.422;13.486;2023-07-13T08:39:45;23.20;99.90
9305;DHT22;4690;52.422;13.486;2023-07-13T08:47:44;23.80;99.90
9305;DHT22;4690;52.422;13.486;2023-07-13T08:50:18;24.00;99.90
9305;DHT22;4690;52.422;13.486;2023-07-13T08:52:49;24.00;99.90
9305;DHT22;4690;52.422;13.486;2023-07-13T08:55:22;24.10;99.90
9305;DHT22;4690;52.422;13.486;2023-07-13T08:58:00;24.50;99.90
9305;DHT22;4690;52.422;13.486;2023-07-13T09:04:21;24.80;99.90
9305;DHT22;4690;52.422;13.486;2023-07-13T09:13:02;24.90;99.90
9305;DHT22;4690;52.422;13.486;2023-07-13T09:15:36;25.00;99.90
9305;DHT22;4690;52.422;13.486;2023-07-13T09:19:07;25.00;99.90
9305;DHT22;4690;52.422;13.486;2023-07-13T09:21:37;24.70;99.90
9305;DHT22;4690;52.422;13.486;2023-07-13T09:24:41;24.60;99.90
9305;DHT22;4690;52.422;13.486;2023-07-13T09:27:43;24.80;99.90
9305;DHT22;4690;52.422;13.486;2023-07-13T09:32:42;24.80;99.90
9305;DHT22;4690;52.422;13.486;2023-07-13T09:35:19;24.60;99.90
9305;DHT22;4690;52.422;13.486;2023-07-13T09:37:48;24.30;99.90
9305;DHT22;4690;52.422;13.486;2023-07-13T09:40:46;24.00;99.90
9305;DHT22;4690;52.422;13.486;2023-07-13T09:43:22;24.00;99.90
9305;DHT22;4690;52.422;13.486;2023-07-13T09:45:48;23.90;99.90
9305;DHT22;4690;52.422;13.486;2023-07-13T09:48:15;23.80;99.90
9305;DHT22;4690;52.422;13.486;2023-07-13T09:50:43;23.70;99.90
9305;DHT22;4690;52.422;13.486;2023-07-13T09:53:17;23.60;99.90
9305;DHT22;4690;52.422;13.486;2023-07-13T09:55:46;23.50;99.90
9305;DHT22;4690;52.422;13.486;2023-07-13T09:58:25;23.70;99.90
9305;DHT22;4690;52.422;13.486;2023-07-13T10:01:13;23.80;99.90
9305;DHT22;4690;52.422;13.486;2023-07-13T10:03:53;23.70;99.90
9305;DHT22;4690;52.422;13.486;2023-07-13T10:06:21;23.60;99.90
9305;DHT22;4690;52.422;13.486;2023-07-13T10:08:49;23.80;99.90
9305;DHT22;4690;52.422;13.486;2023-07-13T10:11:28;23.80;99.90
9305;DHT22;4690;52.422;13.486;2023-07-13T10:16:25;24.70;99.90
9305;DHT22;4690;52.422;13.486;2023-07-13T10:19:05;24.90;99.90
9305;DHT22;4690;52.422;13.486;2023-07-13T10:21:56;24.50;99.90
9305;DHT22;4690;52.422;13.486;2023-07-13T10:24:27;24.20;99.90
9305;DHT22;4690;52.422;13.486;2023-07-13T10:27:17;24.00;99.90
9305;DHT22;4690;52.422;13.486;2023-07-13T10:29:53;24.10;99.90
9305;DHT22;4690;52.422;13.486;2023-07-13T10:32:26;23.90;99.90
9305;DHT22;4690;52.422;13.486;2023-07-13T10:34:53;23.90;99.90
9305;DHT22;4690;52.422;13.486;2023-07-13T10:37:23;24.10;99.90
9305;DHT22;4690;52.422;13.486;2023-07-13T10:39:56;23.90;99.90
9305;DHT22;4690;52.422;13.486;2023-07-13T10:42:37;24.00;99.90
9305;DHT22;4690;52.422;13.486;2023-07-13T10:45:25;24.30;99.90
9305;DHT22;4690;52.422;13.486;2023-07-13T10:47:55;24.80;99.90
9305;DHT22;4690;52.422;13.486;2023-07-13T10:50:24;24.90;99.90
9305;DHT22;4690;52.422;13.486;2023-07-13T10:52:55;25.00;99.90
9305;DHT22;4690;52.422;13.486;2023-07-13T10:55:58;24.80;99.90
9305;DHT22;4690;52.422;13.486;2023-07-13T10:58:36;24.50;99.10
9305;DHT22;4690;52.422;13.486;2023-07-13T11:03:37;24.70;99.90
9305;DHT22;4690;52.422;13.486;2023-07-13T11:08:58;24.70;99.80
9305;DHT22;4690;52.422;13.486;2023-07-13T11:11:45;24.60;99.90
9305;DHT22;4690;52.422;13.486;2023-07-13T11:20:31;25.50;99.00
9305;DHT22;4690;52.422;13.486;2023-07-13T11:23:20;25.60;99.90
9305;DHT22;4690;52.422;13.486;2023-07-13T11:25:53;25.90;98.50
9305;DHT22;4690;52.422;13.486;2023-07-13T11:28:24;25.70;97.60
9305;DHT22;4690;52.422;13.486;2023-07-13T11:33:23;25.70;97.50
9305;DHT22;4690;52.422;13.486;2023-07-13T11:36:16;25.80;98.40
9305;DHT22;4690;52.422;13.486;2023-07-13T11:39:39;25.90;95.90
9305;DHT22;4690;52.422;13.486;2023-07-13T11:41:59;26.20;95.50
9305;DHT22;4690;52.422;13.486;2023-07-13T11:44:29;26.10;92.90
9305;DHT22;4690;52.422;13.486;2023-07-13T11:47:11;26.30;92.90
9305;DHT22;4690;52.422;13.486;2023-07-13T11:49:49;26.30;92.80
9305;DHT22;4690;52.422;13.486;2023-07-13T11:52:21;26.20;93.70
9305;DHT22;4690;52.422;13.486;2023-07-13T11:54:55;26.10;94.60
9305;DHT22;4690;52.422;13.486;2023-07-13T11:57:56;26.10;93.60
9305;DHT22;4690;52.422;13.486;2023-07-13T12:00:29;26.20;92.90
9305;DHT22;4690;52.422;13.486;2023-07-13T12:03:00;26.30;93.90
9305;DHT22;4690;52.422;13.486;2023-07-13T12:05:28;26.10;93.80
9305;DHT22;4690;52.422;13.486;2023-07-13T12:07:56;26.50;96.90
9305;DHT22;4690;52.422;13.486;2023-07-13T12:10:27;26.30;95.90
9305;DHT22;4690;52.422;13.486;2023-07-13T12:13:00;26.20;94.80
9305;DHT22;4690;52.422;13.486;2023-07-13T12:15:44;26.30;95.80
9305;DHT22;4690;52.422;13.486;2023-07-13T12:18:22;26.20;95.00
9305;DHT22;4690;52.422;13.486;2023-07-13T12:20:56;26.20;94.90
9305;DHT22;4690;52.422;13.486;2023-07-13T12:23:32;26.40;96.30
9305;DHT22;4690;52.422;13.486;2023-07-13T12:26:06;26.40;93.90
9305;DHT22;4690;52.422;13.486;2023-07-13T12:28:52;26.50;94.20
9305;DHT22;4690;52.422;13.486;2023-07-13T12:31:33;26.40;93.80
9305;DHT22;4690;52.422;13.486;2023-07-13T12:34:23;26.50;94.20
9305;DHT22;4690;52.422;13.486;2023-07-13T12:36:59;26.60;94.80
9305;DHT22;4690;52.422;13.486;2023-07-13T12:39:33;26.50;94.50
9305;DHT22;4690;52.422;13.486;2023-07-13T12:42:25;26.70;96.10
9305;DHT22;4690;52.422;13.486;2023-07-13T12:45:02;26.80;96.10
9305;DHT22;4690;52.422;13.486;2023-07-13T12:47:42;26.50;94.80
9305;DHT22;4690;52.422;13.486;2023-07-13T12:50:15;26.30;93.60
9305;DHT22;4690;52.422;13.486;2023-07-13T12:52:54;26.50;96.40
9305;DHT22;4690;52.422;13.486;2023-07-13T12:55:25;26.70;93.10
9305;DHT22;4690;52.422;13.486;2023-07-13T13:00:35;26.40;94.10
9305;DHT22;4690;52.422;13.486;2023-07-13T13:05:45;26.40;94.80
9305;DHT22;4690;52.422;13.486;2023-07-13T13:08:12;26.10;93.60
9305;DHT22;4690;52.422;13.486;2023-07-13T13:10:38;25.90;94.20
9305;DHT22;4690;52.422;13.486;2023-07-13T13:13:04;25.80;94.30
9305;DHT22;4690;52.422;13.486;2023-07-13T13:15:30;25.90;95.00
9305;DHT22;4690;52.422;13.486;2023-07-13T13:17:56;26.30;95.20
9305;DHT22;4690;52.422;13.486;2023-07-13T13:20:24;26.60;96.30
9305;DHT22;4690;52.422;13.486;2023-07-13T13:22:53;26.70;95.80
9305;DHT22;4690;52.422;13.486;2023-07-13T13:25:20;26.60;94.20
9305;DHT22;4690;52.422;13.486;2023-07-13T13:27:47;26.60;94.10
9305;DHT22;4690;52.422;13.486;2023-07-13T13:30:17;26.50;93.20
9305;DHT22;4690;52.422;13.486;2023-07-13T13:32:46;26.70;94.10
9305;DHT22;4690;52.422;13.486;2023-07-13T13:35:15;26.90;96.00
9305;DHT22;4690;52.422;13.486;2023-07-13T13:37:43;26.90;95.80
9305;DHT22;4690;52.422;13.486;2023-07-13T13:40:17;27.00;94.30
9305;DHT22;4690;52.422;13.486;2023-07-13T13:42:44;27.00;94.80
9305;DHT22;4690;52.422;13.486;2023-07-13T13:45:11;26.60;94.90
9305;DHT22;4690;52.422;13.486;2023-07-13T13:47:39;26.50;96.10
9305;DHT22;4690;52.422;13.486;2023-07-13T13:52:43;26.30;96.10
9305;DHT22;4690;52.422;13.486;2023-07-13T13:55:14;26.30;93.60
9305;DHT22;4690;52.422;13.486;2023-07-13T13:57:40;26.50;93.60
9305;DHT22;4690;52.422;13.486;2023-07-13T14:00:09;26.70;93.50
9305;DHT22;4690;52.422;13.486;2023-07-13T14:02:41;26.60;93.20
9305;DHT22;4690;52.422;13.486;2023-07-13T14:05:13;26.80;93.40
9305;DHT22;4690;52.422;13.486;2023-07-13T14:07:41;26.90;94.00
9305;DHT22;4690;52.422;13.486;2023-07-13T14:10:18;26.50;92.90
9305;DHT22;4690;52.422;13.486;2023-07-13T14:12:47;26.50;92.10
9305;DHT22;4690;52.422;13.486;2023-07-13T14:15:26;26.20;93.10
9305;DHT22;4690;52.422;13.486;2023-07-13T14:17:54;26.30;94.20
9305;DHT22;4690;52.422;13.486;2023-07-13T14:20:22;26.40;94.90
9305;DHT22;4690;52.422;13.486;2023-07-13T14:22:49;26.30;94.10
9305;DHT22;4690;52.422;13.486;2023-07-13T14:25:17;26.30;94.70
9305;DHT22;4690;52.422;13.486;2023-07-13T14:27:46;26.50;94.50
9305;DHT22;4690;52.422;13.486;2023-07-13T14:30:19;26.50;93.60
9305;DHT22;4690;52.422;13.486;2023-07-13T14:32:47;26.60;93.80
9305;DHT22;4690;52.422;13.486;2023-07-13T14:35:16;26.30;92.80
9305;DHT22;4690;52.422;13.486;2023-07-13T14:37:44;26.30;94.90
9305;DHT22;4690;52.422;13.486;2023-07-13T14:40:17;26.30;93.30
9305;DHT22;4690;52.422;13.486;2023-07-13T14:42:54;26.30;93.30
9305;DHT22;4690;52.422;13.486;2023-07-13T14:45:20;25.90;93.80
9305;DHT22;4690;52.422;13.486;2023-07-13T14:47:47;25.90;94.50
9305;DHT22;4690;52.422;13.486;2023-07-13T14:52:39;26.30;93.50
9305;DHT22;4690;52.422;13.486;2023-07-13T14:55:11;26.30;94.10
9305;DHT22;4690;52.422;13.486;2023-07-13T14:57:38;26.30;94.00
9305;DHT22;4690;52.422;13.486;2023-07-13T15:00:16;26.40;94.70
9305;DHT22;4690;52.422;13.486;2023-07-13T15:02:51;26.60;95.40
9305;DHT22;4690;52.422;13.486;2023-07-13T15:05:22;26.60;94.30
9305;DHT22;4690;52.422;13.486;2023-07-13T15:07:53;26.60;93.10
9305;DHT22;4690;52.422;13.486;2023-07-13T15:10:25;26.50;93.40
9305;DHT22;4690;52.422;13.486;2023-07-13T15:13:12;26.30;93.60
9305;DHT22;4690;52.422;13.486;2023-07-13T15:15:40;26.30;93.30
9305;DHT22;4690;52.422;13.486;2023-07-13T15:18:11;26.30;93.20
9305;DHT22;4690;52.422;13.486;2023-07-13T15:20:39;26.30;91.80
9305;DHT22;4690;52.422;13.486;2023-07-13T15:23:05;26.20;90.30
9305;DHT22;4690;52.422;13.486;2023-07-13T15:25:32;26.20;90.00
9305;DHT22;4690;52.422;13.486;2023-07-13T15:27:59;26.30;92.00
9305;DHT22;4690;52.422;13.486;2023-07-13T15:30:29;26.30;90.70
9305;DHT22;4690;52.422;13.486;2023-07-13T15:35:45;26.20;90.50
9305;DHT22;4690;52.422;13.486;2023-07-13T15:38:20;26.20;93.30
9305;DHT22;4690;52.422;13.486;2023-07-13T15:40:49;26.20;91.60
9305;DHT22;4690;52.422;13.486;2023-07-13T15:43:17;26.20;90.90
9305;DHT22;4690;52.422;13.486;2023-07-13T15:45:45;26.10;91.60
9305;DHT22;4690;52.422;13.486;2023-07-13T15:48:23;26.20;92.30
9305;DHT22;4690;52.422;13.486;2023-07-13T15:50:54;26.20;91.70
9305;DHT22;4690;52.422;13.486;2023-07-13T15:53:28;26.10;92.10
9305;DHT22;4690;52.422;13.486;2023-07-13T15:55:57;26.00;91.70
9305;DHT22;4690;52.422;13.486;2023-07-13T15:58:24;26.00;91.70
9305;DHT22;4690;52.422;13.486;2023-07-13T16:00:50;26.00;92.30
9305;DHT22;4690;52.422;13.486;2023-07-13T16:03:17;25.90;91.00
9305;DHT22;4690;52.422;13.486;2023-07-13T16:05:44;25.90;92.60
9305;DHT22;4690;52.422;13.486;2023-07-13T16:08:26;25.90;92.50
9305;DHT22;4690;52.422;13.486;2023-07-13T16:10:56;25.80;91.00
9305;DHT22;4690;52.422;13.486;2023-07-13T16:13:22;25.90;92.40
9305;DHT22;4690;52.422;13.486;2023-07-13T16:15:50;25.80;92.40
9305;DHT22;4690;52.422;13.486;2023-07-13T16:18:16;25.70;91.30
9305;DHT22;4690;52.422;13.486;2023-07-13T16:20:43;25.70;91.40
9305;DHT22;4690;52.422;13.486;2023-07-13T16:23:12;25.70;90.90
9305;DHT22;4690;52.422;13.486;2023-07-13T16:25:40;25.70;91.10
9305;DHT22;4690;52.422;13.486;2023-07-13T16:28:09;25.70;91.00
9305;DHT22;4690;52.422;13.486;2023-07-13T16:30:36;25.80;91.30
9305;DHT22;4690;52.422;13.486;2023-07-13T16:33:03;25.80;91.00
9305;DHT22;4690;52.422;13.486;2023-07-13T16:35:34;25.80;90.80
9305;DHT22;4690;52.422;13.486;2023-07-13T16:38:03;25.80;91.10
9305;DHT22;4690;52.422;13.486;2023-07-13T16:40:36;25.80;90.80
9305;DHT22;4690;52.422;13.486;2023-07-13T16:43:02;25.70;90.80
9305;DHT22;4690;52.422;13.486;2023-07-13T16:45:30;25.70;91.60
9305;DHT22;4690;52.422;13.486;2023-07-13T16:48:02;25.70;90.60
9305;DHT22;4690;52.422;13.486;2023-07-13T16:50:38;25.70;90.50
9305;DHT22;4690;52.422;13.486;2023-07-13T16:53:18;25.50;90.90